Miniplon — FIDV — position and weather

sailwx.info

Track history (hours):
 
Tides and Currents Weather Stations Pressure Air Temp Water Temp Dewpoint Dewpoint Depression Visibility Wind Speed Wind Dir Waves Ship Positions

Miniplon

Last reported at 2016-Feb-05 13:32 UTC. Time now 2016-Feb-11 10:48 UTC.
Position N 46°30' W 001°47'.

Length 22 m.

Type: SAR. MMSI: 228024600.

Date/timePositionNaut miles runAvg speedWind from/ knotsBaromVisibWave heightAir tempDewpointWater temp
2016-Feb-05 13:32N 46°30' W 001°47'0 0.1
2016-Feb-05 12:31N 46°30' W 001°47'8 8.9
2016-Feb-05 11:33N 46°33' W 001°59'10 1.3
2016-Feb-05 04:18N 46°40' W 002°09'7 9.5
2016-Feb-05 03:33N 46°35' W 002°01'9 9.1
2016-Feb-05 02:33N 46°29' W 001°51'3 2.8
2016-Feb-05 01:31N 46°30' W 001°47'0 0.0
2016-Feb-05 00:31N 46°30' W 001°47'0 0.0
2016-Feb-04 23:31N 46°30' W 001°47'0 0.0
2016-Feb-04 22:31N 46°30' W 001°47'0 0.0
2016-Feb-04 21:31N 46°30' W 001°47'0 0.0
2016-Feb-04 20:31N 46°30' W 001°47'0 0.0
2016-Feb-04 19:31N 46°30' W 001°47'0 0.0
2016-Feb-04 18:31N 46°30' W 001°47'0 0.0
2016-Feb-04 17:31N 46°30' W 001°47'0 0.0
2016-Feb-04 16:31N 46°30' W 001°47'0 0.0
2016-Feb-04 15:31N 46°30' W 001°47'0 0.0
2016-Feb-04 14:31N 46°30' W 001°47'0 0.0
2016-Feb-04 13:31N 46°30' W 001°47'0 0.0
2016-Feb-04 12:31N 46°30' W 001°47'0 0.0
2016-Feb-04 11:31N 46°30' W 001°47'0 0.0
2016-Feb-04 10:31N 46°30' W 001°47'0 0.0
2016-Feb-04 09:31N 46°30' W 001°47'0 0.0
2016-Feb-04 08:31N 46°30' W 001°47'0 0.0
2016-Feb-04 07:31N 46°30' W 001°47'0 0.0
2016-Feb-04 06:31N 46°30' W 001°47'0 0.0
2016-Feb-04 05:31N 46°30' W 001°47'0 0.0
2016-Feb-04 04:31N 46°30' W 001°47'0 0.0
2016-Feb-04 03:31N 46°30' W 001°47'0 0.0
2016-Feb-04 02:31N 46°30' W 001°47'0 0.0
2016-Feb-04 01:31N 46°30' W 001°47'0 0.0
2016-Feb-04 00:31N 46°30' W 001°47'0 0.0
2016-Feb-03 23:31N 46°30' W 001°47'0 0.0
2016-Feb-03 22:31N 46°30' W 001°47'0 0.0
2016-Feb-03 21:31N 46°30' W 001°47'0 0.0
2016-Feb-03 20:31N 46°30' W 001°47'0 0.0
2016-Feb-03 19:31N 46°30' W 001°47'0 0.0
2016-Feb-03 18:31N 46°30' W 001°47'0 0.0
2016-Feb-03 17:31N 46°30' W 001°47'0 0.0
2016-Feb-03 16:31N 46°30' W 001°47'0 0.0
2016-Feb-03 15:31N 46°30' W 001°47'0 0.0
2016-Feb-03 14:31N 46°30' W 001°47'0 0.0
2016-Feb-03 13:31N 46°30' W 001°47'0 0.0
2016-Feb-03 12:31N 46°30' W 001°47'0 0.0
2016-Feb-03 11:31N 46°30' W 001°47'0 0.0
2016-Feb-03 10:31N 46°30' W 001°47'0 0.0
2016-Feb-03 09:31N 46°30' W 001°47'0 0.0
2016-Feb-03 08:31N 46°30' W 001°47'0 0.0
2016-Feb-03 07:31N 46°30' W 001°47'0 0.0
2016-Feb-03 06:31N 46°30' W 001°47'0 0.0
2016-Feb-03 05:31N 46°30' W 001°47'0 0.0
2016-Feb-03 04:31N 46°30' W 001°47'0 0.0
2016-Feb-03 03:28N 46°30' W 001°47'0 0.0
2016-Feb-03 02:31N 46°30' W 001°47'0 0.0
2016-Feb-03 01:31N 46°30' W 001°47'0 0.0
2016-Feb-03 00:31N 46°30' W 001°47'0 0.0
2016-Feb-02 23:31N 46°30' W 001°47'0 0.0
2016-Feb-02 22:31N 46°30' W 001°47'0 0.0
2016-Feb-02 21:31N 46°30' W 001°47'0 0.0
2016-Feb-02 20:31N 46°30' W 001°47'0 0.0
2016-Feb-02 19:31N 46°30' W 001°47'0 0.0
2016-Feb-02 18:28N 46°30' W 001°47'0 0.0
2016-Feb-02 17:31N 46°30' W 001°47'0 0.0
2016-Feb-02 16:31N 46°30' W 001°47'0 0.0
2016-Feb-02 15:31N 46°30' W 001°47'0 0.0
2016-Feb-02 14:31N 46°30' W 001°47'0 0.0
2016-Feb-02 13:31N 46°30' W 001°47'0 0.0
2016-Feb-02 12:31N 46°30' W 001°47'0 0.0
2016-Feb-02 11:31N 46°30' W 001°47'0 0.0
2016-Feb-02 10:31N 46°30' W 001°47'0 0.0
2016-Feb-02 09:31N 46°30' W 001°47'0 0.0
2016-Feb-02 08:31N 46°30' W 001°47'0 0.0
2016-Feb-02 07:31N 46°30' W 001°47'0 0.0
2016-Feb-02 06:31N 46°30' W 001°47'0 0.0
2016-Feb-02 05:31N 46°30' W 001°47'0 0.0
2016-Feb-02 04:31N 46°30' W 001°47'0 0.0
2016-Feb-02 03:31N 46°30' W 001°47'0 0.0
2016-Feb-02 02:31N 46°30' W 001°47'0 0.0
2016-Feb-02 01:31N 46°30' W 001°47'0 0.0
2016-Feb-02 00:31N 46°30' W 001°47'0 0.0
2016-Feb-01 23:31N 46°30' W 001°47'0 0.0
2016-Feb-01 22:31N 46°30' W 001°47'0 0.0
2016-Feb-01 21:31N 46°30' W 001°47'0 0.0
2016-Feb-01 20:28N 46°30' W 001°47'0 0.0
2016-Feb-01 19:31N 46°30' W 001°47'0 0.0
2016-Feb-01 18:31N 46°30' W 001°47'0 0.0
2016-Feb-01 17:31N 46°30' W 001°47'0 0.0
2016-Feb-01 16:31N 46°30' W 001°47'0 0.0
2016-Feb-01 15:31N 46°30' W 001°47'0 0.0
2016-Feb-01 14:31N 46°30' W 001°47'0 0.0
2016-Feb-01 13:31N 46°30' W 001°47'0 0.0
2016-Feb-01 12:31N 46°30' W 001°47'0 0.0
2016-Feb-01 11:31N 46°30' W 001°47'0 0.0
2016-Feb-01 10:31N 46°30' W 001°47'0 0.0
2016-Feb-01 09:31N 46°30' W 001°47'0 0.0
2016-Feb-01 08:31N 46°30' W 001°47'0 0.0
2016-Feb-01 07:31N 46°30' W 001°47'0 0.0
2016-Feb-01 06:31N 46°30' W 001°47'0 0.0
2016-Feb-01 05:31N 46°30' W 001°47'0 0.0
2016-Feb-01 04:31N 46°30' W 001°47'0 0.0
2016-Feb-01 03:31N 46°30' W 001°47'0 0.0
2016-Feb-01 02:31N 46°30' W 001°47'0 0.0
2016-Feb-01 01:31N 46°30' W 001°47'0 0.0
2016-Feb-01 00:31N 46°30' W 001°47'0 0.0
2016-Jan-31 23:31N 46°30' W 001°47'0 0.0
2016-Jan-31 22:31N 46°30' W 001°47'0 0.0
2016-Jan-31 21:31N 46°30' W 001°47'0 0.0
2016-Jan-31 20:31N 46°30' W 001°47'0 0.0
2016-Jan-31 19:31N 46°30' W 001°47'0 0.0
2016-Jan-31 18:31N 46°30' W 001°47'0 0.0
2016-Jan-31 17:31N 46°30' W 001°47'0 0.0
2016-Jan-31 16:31N 46°30' W 001°47'0 0.0
2016-Jan-31 15:31N 46°30' W 001°47'0 0.0
2016-Jan-31 14:31N 46°30' W 001°47'0 0.0
2016-Jan-31 13:31N 46°30' W 001°47'0 0.0
2016-Jan-31 12:31N 46°30' W 001°47'0 0.0
2016-Jan-31 11:31N 46°30' W 001°47'0 0.0
2016-Jan-31 10:31N 46°30' W 001°47'0 0.0
2016-Jan-31 09:31N 46°30' W 001°47'0 0.0
2016-Jan-31 08:31N 46°30' W 001°47'0 0.0
2016-Jan-31 07:31N 46°30' W 001°47'0 0.0
2016-Jan-31 06:31N 46°30' W 001°47'0 0.0
2016-Jan-31 05:31N 46°30' W 001°47'0 0.0
2016-Jan-31 04:31N 46°30' W 001°47'0 0.0
2016-Jan-31 03:31N 46°30' W 001°47'0 0.0
2016-Jan-31 02:31N 46°30' W 001°47'0 0.0
2016-Jan-31 01:31N 46°30' W 001°47'0 0.0
2016-Jan-31 00:31N 46°30' W 001°47'0 0.0
2016-Jan-30 23:31N 46°30' W 001°47'0 0.0
2016-Jan-30 22:31N 46°30' W 001°47'0 0.0
2016-Jan-30 21:31N 46°30' W 001°47'0 0.0
2016-Jan-30 20:31N 46°30' W 001°47'0 0.0
2016-Jan-30 19:31N 46°30' W 001°47'0 0.0
2016-Jan-30 18:31N 46°30' W 001°47'0 0.0
2016-Jan-30 17:31N 46°30' W 001°47'0 0.0
2016-Jan-30 16:31N 46°30' W 001°47'0 0.0
2016-Jan-30 15:31N 46°30' W 001°47'0 0.0
2016-Jan-30 14:31N 46°30' W 001°47'0 0.0
2016-Jan-30 13:31N 46°30' W 001°47'0 0.0
2016-Jan-30 12:31N 46°30' W 001°47'0 0.0
2016-Jan-30 11:31N 46°30' W 001°47'0 0.0
2016-Jan-30 10:31N 46°30' W 001°47'0 0.0
2016-Jan-30 09:31N 46°30' W 001°47'0 0.0
2016-Jan-30 08:31N 46°30' W 001°47'0 0.0
2016-Jan-30 07:31N 46°30' W 001°47'0 0.0
2016-Jan-30 06:31N 46°30' W 001°47'0 0.0
2016-Jan-30 05:31N 46°30' W 001°47'0 0.0
2016-Jan-30 04:31N 46°30' W 001°47'0 0.0
2016-Jan-30 03:31N 46°30' W 001°47'0 0.0
2016-Jan-30 02:31N 46°30' W 001°47'0 0.0
2016-Jan-30 01:31N 46°30' W 001°47'0 0.0
2016-Jan-30 00:31N 46°30' W 001°47'0 0.0
2016-Jan-29 23:31N 46°30' W 001°47'0 0.0
2016-Jan-29 22:31N 46°30' W 001°47'0 0.0
2016-Jan-29 21:31N 46°30' W 001°47'0 0.0
2016-Jan-29 20:31N 46°30' W 001°47'0 0.0
2016-Jan-29 19:31N 46°30' W 001°47'0 0.0
2016-Jan-29 18:31N 46°30' W 001°47'0 0.0
2016-Jan-29 17:31N 46°30' W 001°47'0 0.0
2016-Jan-29 16:31N 46°30' W 001°47'0 0.0
2016-Jan-29 15:31N 46°30' W 001°47'0 0.0
2016-Jan-29 14:31N 46°30' W 001°47'0 0.0
2016-Jan-29 13:31N 46°30' W 001°47'0 0.0
2016-Jan-29 12:31N 46°30' W 001°47'0 0.0
2016-Jan-29 11:31N 46°30' W 001°47'0 0.0
2016-Jan-29 10:31N 46°30' W 001°47'0 0.0
2016-Jan-29 09:31N 46°30' W 001°47'0 0.0
2016-Jan-29 08:31N 46°30' W 001°47'0 0.0
2016-Jan-29 07:31N 46°30' W 001°47'0 0.0
2016-Jan-29 06:31N 46°30' W 001°47'0 0.0
2016-Jan-29 05:31N 46°30' W 001°47'0 0.0
2016-Jan-29 04:31N 46°30' W 001°47'0 0.0
2016-Jan-29 03:31N 46°30' W 001°47'0 0.0
2016-Jan-29 02:31N 46°30' W 001°47'0 0.0
2016-Jan-29 01:31N 46°30' W 001°47'0 0.0
2016-Jan-29 00:31N 46°30' W 001°47'0 0.0
2016-Jan-28 23:31N 46°30' W 001°47'0 0.0
2016-Jan-28 22:31N 46°30' W 001°47'0 0.0
2016-Jan-28 21:31N 46°30' W 001°47'0 0.0
2016-Jan-28 20:31N 46°30' W 001°47'0 0.0
2016-Jan-28 19:31N 46°30' W 001°47'0 0.0
2016-Jan-28 18:31N 46°30' W 001°47'0 0.0
2016-Jan-28 17:31N 46°30' W 001°47'0 0.0
2016-Jan-28 16:31N 46°30' W 001°47'0 0.0
2016-Jan-28 15:31N 46°30' W 001°47'0 0.0
2016-Jan-28 14:31N 46°30' W 001°47'0 0.0
2016-Jan-28 13:31N 46°30' W 001°47'0 0.0
2016-Jan-28 12:31N 46°30' W 001°47'0 0.0
2016-Jan-28 11:31N 46°30' W 001°47'0 0.0
2016-Jan-28 10:31N 46°30' W 001°47'0 0.0
2016-Jan-28 09:31N 46°30' W 001°47'0 0.0
2016-Jan-28 08:31N 46°30' W 001°47'0 0.0
2016-Jan-28 07:31N 46°30' W 001°47'0 0.0
2016-Jan-28 06:31N 46°30' W 001°47'0 0.0
2016-Jan-28 05:31N 46°30' W 001°47'0 0.0
2016-Jan-28 04:31N 46°30' W 001°47'0 0.0
2016-Jan-28 03:31N 46°30' W 001°47'0 0.0
2016-Jan-28 02:31N 46°30' W 001°47'0 0.0
2016-Jan-28 01:31N 46°30' W 001°47'0 0.0
2016-Jan-28 00:31N 46°30' W 001°47'0 0.0
2016-Jan-27 23:31N 46°30' W 001°47'0 0.0
2016-Jan-27 22:31N 46°30' W 001°47'0 0.0
2016-Jan-27 21:31N 46°30' W 001°47'0 0.0
2016-Jan-27 20:31N 46°30' W 001°47'0 0.0
2016-Jan-27 19:31N 46°30' W 001°47'0 0.0
2016-Jan-27 18:31N 46°30' W 001°47'0 0.0
2016-Jan-27 17:31N 46°30' W 001°47'0 0.0
2016-Jan-27 16:31N 46°30' W 001°47'0 0.0
2016-Jan-27 15:31N 46°30' W 001°47'0 0.0
2016-Jan-27 14:31N 46°30' W 001°47'0 0.0
2016-Jan-27 13:31N 46°30' W 001°47'0 0.0
2016-Jan-27 12:31N 46°30' W 001°47'0 0.0
2016-Jan-27 11:31N 46°30' W 001°47'0 0.0
2016-Jan-27 10:31N 46°30' W 001°47'0 0.0
2016-Jan-27 09:31N 46°30' W 001°47'0 0.0
2016-Jan-27 08:31N 46°30' W 001°47'0 0.0
2016-Jan-27 07:31N 46°30' W 001°47'0 0.0
2016-Jan-27 06:31N 46°30' W 001°47'0 0.0
2016-Jan-27 05:31N 46°30' W 001°47'0 0.0
2016-Jan-27 04:31N 46°30' W 001°47'0 0.0
2016-Jan-27 03:31N 46°30' W 001°47'0 0.0
2016-Jan-27 02:31N 46°30' W 001°47'0 0.0
2016-Jan-27 01:31N 46°30' W 001°47'0 0.0
2016-Jan-27 00:31N 46°30' W 001°47'0 0.0
2016-Jan-26 23:31N 46°30' W 001°47'0 0.0
2016-Jan-26 22:31N 46°30' W 001°47'0 0.0
2016-Jan-26 21:31N 46°30' W 001°47'0 0.0
2016-Jan-26 20:31N 46°30' W 001°47'0 0.0
2016-Jan-26 19:31N 46°30' W 001°47'0 0.0
2016-Jan-26 18:31N 46°30' W 001°47'0 0.0
2016-Jan-26 17:31N 46°30' W 001°47'0 0.0
2016-Jan-26 16:31N 46°30' W 001°47'0 0.0
2016-Jan-26 15:31N 46°30' W 001°47'0 0.0
2016-Jan-26 14:31N 46°30' W 001°47'  
Track history (hours):
 
Tides and Currents Weather Stations Pressure Air Temp Water Temp Dewpoint Dewpoint Depression Visibility Wind Speed Wind Dir Waves Ship Positions

Miniplon

Last reported at 2016-Feb-05 13:32 UTC. Time now 2016-Feb-11 10:48 UTC.
Position N 46°30' W 001°47'.

Length 22 m.

Type: SAR. MMSI: 228024600.

Date/timePositionNaut miles runAvg speedWind from/ knotsBaromVisibWave heightAir tempDewpointWater temp
2016-Feb-05 13:32N 46°30' W 001°47'0 0.1
2016-Feb-05 12:31N 46°30' W 001°47'8 8.9
2016-Feb-05 11:33N 46°33' W 001°59'10 1.3
2016-Feb-05 04:18N 46°40' W 002°09'7 9.5
2016-Feb-05 03:33N 46°35' W 002°01'9 9.1
2016-Feb-05 02:33N 46°29' W 001°51'3 2.8
2016-Feb-05 01:31N 46°30' W 001°47'0 0.0
2016-Feb-05 00:31N 46°30' W 001°47'0 0.0
2016-Feb-04 23:31N 46°30' W 001°47'0 0.0
2016-Feb-04 22:31N 46°30' W 001°47'0 0.0
2016-Feb-04 21:31N 46°30' W 001°47'0 0.0
2016-Feb-04 20:31N 46°30' W 001°47'0 0.0
2016-Feb-04 19:31N 46°30' W 001°47'0 0.0
2016-Feb-04 18:31N 46°30' W 001°47'0 0.0
2016-Feb-04 17:31N 46°30' W 001°47'0 0.0
2016-Feb-04 16:31N 46°30' W 001°47'0 0.0
2016-Feb-04 15:31N 46°30' W 001°47'0 0.0
2016-Feb-04 14:31N 46°30' W 001°47'0 0.0
2016-Feb-04 13:31N 46°30' W 001°47'0 0.0
2016-Feb-04 12:31N 46°30' W 001°47'0 0.0
2016-Feb-04 11:31N 46°30' W 001°47'0 0.0
2016-Feb-04 10:31N 46°30' W 001°47'0 0.0
2016-Feb-04 09:31N 46°30' W 001°47'0 0.0
2016-Feb-04 08:31N 46°30' W 001°47'0 0.0
2016-Feb-04 07:31N 46°30' W 001°47'0 0.0
2016-Feb-04 06:31N 46°30' W 001°47'0 0.0
2016-Feb-04 05:31N 46°30' W 001°47'0 0.0
2016-Feb-04 04:31N 46°30' W 001°47'0 0.0
2016-Feb-04 03:31N 46°30' W 001°47'0 0.0
2016-Feb-04 02:31N 46°30' W 001°47'0 0.0
2016-Feb-04 01:31N 46°30' W 001°47'0 0.0
2016-Feb-04 00:31N 46°30' W 001°47'0 0.0
2016-Feb-03 23:31N 46°30' W 001°47'0 0.0
2016-Feb-03 22:31N 46°30' W 001°47'0 0.0
2016-Feb-03 21:31N 46°30' W 001°47'0 0.0
2016-Feb-03 20:31N 46°30' W 001°47'0 0.0
2016-Feb-03 19:31N 46°30' W 001°47'0 0.0
2016-Feb-03 18:31N 46°30' W 001°47'0 0.0
2016-Feb-03 17:31N 46°30' W 001°47'0 0.0
2016-Feb-03 16:31N 46°30' W 001°47'0 0.0
2016-Feb-03 15:31N 46°30' W 001°47'0 0.0
2016-Feb-03 14:31N 46°30' W 001°47'0 0.0
2016-Feb-03 13:31N 46°30' W 001°47'0 0.0
2016-Feb-03 12:31N 46°30' W 001°47'0 0.0
2016-Feb-03 11:31N 46°30' W 001°47'0 0.0
2016-Feb-03 10:31N 46°30' W 001°47'0 0.0
2016-Feb-03 09:31N 46°30' W 001°47'0 0.0
2016-Feb-03 08:31N 46°30' W 001°47'0 0.0
2016-Feb-03 07:31N 46°30' W 001°47'0 0.0
2016-Feb-03 06:31N 46°30' W 001°47'0 0.0
2016-Feb-03 05:31N 46°30' W 001°47'0 0.0
2016-Feb-03 04:31N 46°30' W 001°47'0 0.0
2016-Feb-03 03:28N 46°30' W 001°47'0 0.0
2016-Feb-03 02:31N 46°30' W 001°47'0 0.0
2016-Feb-03 01:31N 46°30' W 001°47'0 0.0
2016-Feb-03 00:31N 46°30' W 001°47'0 0.0
2016-Feb-02 23:31N 46°30' W 001°47'0 0.0
2016-Feb-02 22:31N 46°30' W 001°47'0 0.0
2016-Feb-02 21:31N 46°30' W 001°47'0 0.0
2016-Feb-02 20:31N 46°30' W 001°47'0 0.0
2016-Feb-02 19:31N 46°30' W 001°47'0 0.0
2016-Feb-02 18:28N 46°30' W 001°47'0 0.0
2016-Feb-02 17:31N 46°30' W 001°47'0 0.0
2016-Feb-02 16:31N 46°30' W 001°47'0 0.0
2016-Feb-02 15:31N 46°30' W 001°47'0 0.0
2016-Feb-02 14:31N 46°30' W 001°47'0 0.0
2016-Feb-02 13:31N 46°30' W 001°47'0 0.0
2016-Feb-02 12:31N 46°30' W 001°47'0 0.0
2016-Feb-02 11:31N 46°30' W 001°47'0 0.0
2016-Feb-02 10:31N 46°30' W 001°47'0 0.0
2016-Feb-02 09:31N 46°30' W 001°47'0 0.0
2016-Feb-02 08:31N 46°30' W 001°47'0 0.0
2016-Feb-02 07:31N 46°30' W 001°47'0 0.0
2016-Feb-02 06:31N 46°30' W 001°47'0 0.0
2016-Feb-02 05:31N 46°30' W 001°47'0 0.0
2016-Feb-02 04:31N 46°30' W 001°47'0 0.0
2016-Feb-02 03:31N 46°30' W 001°47'0 0.0
2016-Feb-02 02:31N 46°30' W 001°47'0 0.0
2016-Feb-02 01:31N 46°30' W 001°47'0 0.0
2016-Feb-02 00:31N 46°30' W 001°47'0 0.0
2016-Feb-01 23:31N 46°30' W 001°47'0 0.0
2016-Feb-01 22:31N 46°30' W 001°47'0 0.0
2016-Feb-01 21:31N 46°30' W 001°47'0 0.0
2016-Feb-01 20:28N 46°30' W 001°47'0 0.0
2016-Feb-01 19:31N 46°30' W 001°47'0 0.0
2016-Feb-01 18:31N 46°30' W 001°47'0 0.0
2016-Feb-01 17:31N 46°30' W 001°47'0 0.0
2016-Feb-01 16:31N 46°30' W 001°47'0 0.0
2016-Feb-01 15:31N 46°30' W 001°47'0 0.0
2016-Feb-01 14:31N 46°30' W 001°47'0 0.0
2016-Feb-01 13:31N 46°30' W 001°47'0 0.0
2016-Feb-01 12:31N 46°30' W 001°47'0 0.0
2016-Feb-01 11:31N 46°30' W 001°47'0 0.0
2016-Feb-01 10:31N 46°30' W 001°47'0 0.0
2016-Feb-01 09:31N 46°30' W 001°47'0 0.0
2016-Feb-01 08:31N 46°30' W 001°47'0 0.0
2016-Feb-01 07:31N 46°30' W 001°47'0 0.0
2016-Feb-01 06:31N 46°30' W 001°47'0 0.0
2016-Feb-01 05:31N 46°30' W 001°47'0 0.0
2016-Feb-01 04:31N 46°30' W 001°47'0 0.0
2016-Feb-01 03:31N 46°30' W 001°47'0 0.0
2016-Feb-01 02:31N 46°30' W 001°47'0 0.0
2016-Feb-01 01:31N 46°30' W 001°47'0 0.0
2016-Feb-01 00:31N 46°30' W 001°47'0 0.0
2016-Jan-31 23:31N 46°30' W 001°47'0 0.0
2016-Jan-31 22:31N 46°30' W 001°47'0 0.0
2016-Jan-31 21:31N 46°30' W 001°47'0 0.0
2016-Jan-31 20:31N 46°30' W 001°47'0 0.0
2016-Jan-31 19:31N 46°30' W 001°47'0 0.0
2016-Jan-31 18:31N 46°30' W 001°47'0 0.0
2016-Jan-31 17:31N 46°30' W 001°47'0 0.0
2016-Jan-31 16:31N 46°30' W 001°47'0 0.0
2016-Jan-31 15:31N 46°30' W 001°47'0 0.0
2016-Jan-31 14:31N 46°30' W 001°47'0 0.0
2016-Jan-31 13:31N 46°30' W 001°47'0 0.0
2016-Jan-31 12:31N 46°30' W 001°47'0 0.0
2016-Jan-31 11:31N 46°30' W 001°47'0 0.0
2016-Jan-31 10:31N 46°30' W 001°47'0 0.0
2016-Jan-31 09:31N 46°30' W 001°47'0 0.0
2016-Jan-31 08:31N 46°30' W 001°47'0 0.0
2016-Jan-31 07:31N 46°30' W 001°47'0 0.0
2016-Jan-31 06:31N 46°30' W 001°47'0 0.0
2016-Jan-31 05:31N 46°30' W 001°47'0 0.0
2016-Jan-31 04:31N 46°30' W 001°47'0 0.0
2016-Jan-31 03:31N 46°30' W 001°47'0 0.0
2016-Jan-31 02:31N 46°30' W 001°47'0 0.0
2016-Jan-31 01:31N 46°30' W 001°47'0 0.0
2016-Jan-31 00:31N 46°30' W 001°47'0 0.0
2016-Jan-30 23:31N 46°30' W 001°47'0 0.0
2016-Jan-30 22:31N 46°30' W 001°47'0 0.0
2016-Jan-30 21:31N 46°30' W 001°47'0 0.0
2016-Jan-30 20:31N 46°30' W 001°47'0 0.0
2016-Jan-30 19:31N 46°30' W 001°47'0 0.0
2016-Jan-30 18:31N 46°30' W 001°47'0 0.0
2016-Jan-30 17:31N 46°30' W 001°47'0 0.0
2016-Jan-30 16:31N 46°30' W 001°47'0 0.0
2016-Jan-30 15:31N 46°30' W 001°47'0 0.0
2016-Jan-30 14:31N 46°30' W 001°47'0 0.0
2016-Jan-30 13:31N 46°30' W 001°47'0 0.0
2016-Jan-30 12:31N 46°30' W 001°47'0 0.0
2016-Jan-30 11:31N 46°30' W 001°47'0 0.0
2016-Jan-30 10:31N 46°30' W 001°47'0 0.0
2016-Jan-30 09:31N 46°30' W 001°47'0 0.0
2016-Jan-30 08:31N 46°30' W 001°47'0 0.0
2016-Jan-30 07:31N 46°30' W 001°47'0 0.0
2016-Jan-30 06:31N 46°30' W 001°47'0 0.0
2016-Jan-30 05:31N 46°30' W 001°47'0 0.0
2016-Jan-30 04:31N 46°30' W 001°47'0 0.0
2016-Jan-30 03:31N 46°30' W 001°47'0 0.0
2016-Jan-30 02:31N 46°30' W 001°47'0 0.0
2016-Jan-30 01:31N 46°30' W 001°47'0 0.0
2016-Jan-30 00:31N 46°30' W 001°47'0 0.0
2016-Jan-29 23:31N 46°30' W 001°47'0 0.0
2016-Jan-29 22:31N 46°30' W 001°47'0 0.0
2016-Jan-29 21:31N 46°30' W 001°47'0 0.0
2016-Jan-29 20:31N 46°30' W 001°47'0 0.0
2016-Jan-29 19:31N 46°30' W 001°47'0 0.0
2016-Jan-29 18:31N 46°30' W 001°47'0 0.0
2016-Jan-29 17:31N 46°30' W 001°47'0 0.0
2016-Jan-29 16:31N 46°30' W 001°47'0 0.0
2016-Jan-29 15:31N 46°30' W 001°47'0 0.0
2016-Jan-29 14:31N 46°30' W 001°47'0 0.0
2016-Jan-29 13:31N 46°30' W 001°47'0 0.0
2016-Jan-29 12:31N 46°30' W 001°47'0 0.0
2016-Jan-29 11:31N 46°30' W 001°47'0 0.0
2016-Jan-29 10:31N 46°30' W 001°47'0 0.0
2016-Jan-29 09:31N 46°30' W 001°47'0 0.0
2016-Jan-29 08:31N 46°30' W 001°47'0 0.0
2016-Jan-29 07:31N 46°30' W 001°47'0 0.0
2016-Jan-29 06:31N 46°30' W 001°47'0 0.0
2016-Jan-29 05:31N 46°30' W 001°47'0 0.0
2016-Jan-29 04:31N 46°30' W 001°47'0 0.0
2016-Jan-29 03:31N 46°30' W 001°47'0 0.0
2016-Jan-29 02:31N 46°30' W 001°47'0 0.0
2016-Jan-29 01:31N 46°30' W 001°47'0 0.0
2016-Jan-29 00:31N 46°30' W 001°47'0 0.0
2016-Jan-28 23:31N 46°30' W 001°47'0 0.0
2016-Jan-28 22:31N 46°30' W 001°47'0 0.0
2016-Jan-28 21:31N 46°30' W 001°47'0 0.0
2016-Jan-28 20:31N 46°30' W 001°47'0 0.0
2016-Jan-28 19:31N 46°30' W 001°47'0 0.0
2016-Jan-28 18:31N 46°30' W 001°47'0 0.0
2016-Jan-28 17:31N 46°30' W 001°47'0 0.0
2016-Jan-28 16:31N 46°30' W 001°47'0 0.0
2016-Jan-28 15:31N 46°30' W 001°47'0 0.0
2016-Jan-28 14:31N 46°30' W 001°47'0 0.0
2016-Jan-28 13:31N 46°30' W 001°47'0 0.0
2016-Jan-28 12:31N 46°30' W 001°47'0 0.0
2016-Jan-28 11:31N 46°30' W 001°47'0 0.0
2016-Jan-28 10:31N 46°30' W 001°47'0 0.0
2016-Jan-28 09:31N 46°30' W 001°47'0 0.0
2016-Jan-28 08:31N 46°30' W 001°47'0 0.0
2016-Jan-28 07:31N 46°30' W 001°47'0 0.0
2016-Jan-28 06:31N 46°30' W 001°47'0 0.0
2016-Jan-28 05:31N 46°30' W 001°47'0 0.0
2016-Jan-28 04:31N 46°30' W 001°47'0 0.0
2016-Jan-28 03:31N 46°30' W 001°47'0 0.0
2016-Jan-28 02:31N 46°30' W 001°47'0 0.0
2016-Jan-28 01:31N 46°30' W 001°47'0 0.0
2016-Jan-28 00:31N 46°30' W 001°47'0 0.0
2016-Jan-27 23:31N 46°30' W 001°47'0 0.0
2016-Jan-27 22:31N 46°30' W 001°47'0 0.0
2016-Jan-27 21:31N 46°30' W 001°47'0 0.0
2016-Jan-27 20:31N 46°30' W 001°47'0 0.0
2016-Jan-27 19:31N 46°30' W 001°47'0 0.0
2016-Jan-27 18:31N 46°30' W 001°47'0 0.0
2016-Jan-27 17:31N 46°30' W 001°47'0 0.0
2016-Jan-27 16:31N 46°30' W 001°47'0 0.0
2016-Jan-27 15:31N 46°30' W 001°47'0 0.0
2016-Jan-27 14:31N 46°30' W 001°47'0 0.0
2016-Jan-27 13:31N 46°30' W 001°47'0 0.0
2016-Jan-27 12:31N 46°30' W 001°47'0 0.0
2016-Jan-27 11:31N 46°30' W 001°47'0 0.0
2016-Jan-27 10:31N 46°30' W 001°47'0 0.0
2016-Jan-27 09:31N 46°30' W 001°47'0 0.0
2016-Jan-27 08:31N 46°30' W 001°47'0 0.0
2016-Jan-27 07:31N 46°30' W 001°47'0 0.0
2016-Jan-27 06:31N 46°30' W 001°47'0 0.0
2016-Jan-27 05:31N 46°30' W 001°47'0 0.0
2016-Jan-27 04:31N 46°30' W 001°47'0 0.0
2016-Jan-27 03:31N 46°30' W 001°47'0 0.0
2016-Jan-27 02:31N 46°30' W 001°47'0 0.0
2016-Jan-27 01:31N 46°30' W 001°47'0 0.0
2016-Jan-27 00:31N 46°30' W 001°47'0 0.0
2016-Jan-26 23:31N 46°30' W 001°47'0 0.0
2016-Jan-26 22:31N 46°30' W 001°47'0 0.0
2016-Jan-26 21:31N 46°30' W 001°47'0 0.0
2016-Jan-26 20:31N 46°30' W 001°47'0 0.0
2016-Jan-26 19:31N 46°30' W 001°47'0 0.0
2016-Jan-26 18:31N 46°30' W 001°47'0 0.0
2016-Jan-26 17:31N 46°30' W 001°47'0 0.0
2016-Jan-26 16:31N 46°30' W 001°47'0 0.0
2016-Jan-26 15:31N 46°30' W 001°47'0 0.0
2016-Jan-26 14:31N 46°30' W 001°47'  

Dump ship's entire track history